Time;durP1;ratioP1;P1;durP2;ratioP2;P2;SDS_P1;SDS_P2;PMS_P1;PMS_P2;Temp;Humidity;BMP_temperature;BMP_pressure;BME280_temperature;BME280_humidity;BME280_pressure;Samples;Min_cycle;Max_cycle;Signal;HPM_P1;HPM_P2
2022/12/10 00:01:57;;;;;;;24.37;18.90;;;;;;;2.70;100.00;95276.88;5046236;28;20648;-61
2022/12/10 00:04:24;;;;;;;25.37;20.37;;;;;;;2.66;100.00;95272.84;5046443;28;20206;-62
2022/12/10 00:06:50;;;;;;;23.63;19.50;;;;;;;2.65;100.00;95270.41;5045772;28;20548;-61
2022/12/10 00:09:18;;;;;;;23.23;19.60;;;;;;;2.64;100.00;95266.13;5045390;28;20230;-63
2022/12/10 00:11:44;;;;;;;24.67;19.97;;;;;;;2.64;100.00;95264.34;5045887;28;20213;-61
2022/12/10 00:14:12;;;;;;;23.97;19.90;;;;;;;2.59;100.00;95258.66;5044798;28;20216;-61
2022/12/10 00:16:39;;;;;;;26.40;20.50;;;;;;;2.65;100.00;95266.00;5046170;28;20222;-61
2022/12/10 00:19:06;;;;;;;24.27;19.57;;;;;;;2.68;100.00;95272.75;5046468;28;20204;-62
2022/12/10 00:21:36;;;;;;;23.97;19.73;;;;;;;2.67;100.00;95271.91;5044963;28;20204;-60
2022/12/10 00:24:04;;;;;;;23.47;19.60;;;;;;;2.66;100.00;95274.66;5045374;28;20213;-59
2022/12/10 00:26:32;;;;;;;24.80;19.27;;;;;;;2.71;100.00;95273.31;5047602;28;20218;-61
2022/12/10 00:28:59;;;;;;;24.97;19.70;;;;;;;2.70;100.00;95257.78;5048108;28;20214;-61
2022/12/10 00:31:27;;;;;;;24.10;20.07;;;;;;;2.67;100.00;95251.03;5047510;28;20227;-61
2022/12/10 00:33:54;;;;;;;26.53;20.27;;;;;;;2.63;100.00;95249.63;5047002;28;20199;-63
2022/12/10 00:36:24;;;;;;;27.63;21.57;;;;;;;2.58;100.00;95244.00;5045251;28;20226;-62
2022/12/10 00:38:51;;;;;;;26.33;20.43;;;;;;;2.60;100.00;95249.06;5045214;28;20546;-62
2022/12/10 00:41:18;;;;;;;24.83;19.80;;;;;;;2.65;100.00;95250.34;5045586;28;20218;-61
2022/12/10 00:43:45;;;;;;;29.40;22.40;;;;;;;2.56;100.00;95238.06;5046381;28;20209;-61
2022/12/10 00:46:12;;;;;;;27.60;21.13;;;;;;;2.56;100.00;95248.50;5044368;28;20215;-60
2022/12/10 00:48:39;;;;;;;27.23;20.73;;;;;;;2.60;100.00;95244.69;5044789;28;20510;-62
2022/12/10 00:51:08;;;;;;;27.90;21.60;;;;;;;2.57;100.00;95257.16;5044942;28;20226;-62
2022/12/10 00:53:38;;;;;;;24.47;20.50;;;;;;;2.67;100.00;95261.47;5045226;28;20199;-61
2022/12/10 00:56:06;;;;;;;25.00;20.60;;;;;;;2.71;100.00;95262.88;5044427;28;20221;-61
2022/12/10 00:58:33;;;;;;;28.33;21.27;;;;;;;2.69;100.00;95266.56;5045284;28;20205;-62
2022/12/10 01:01:08;;;;;;;26.40;20.70;;;;;;;2.68;100.00;95262.31;5044420;28;20675;-60
2022/12/10 01:03:34;;;;;;;26.63;20.67;;;;;;;2.62;100.00;95253.22;5044815;28;20201;-62
2022/12/10 01:06:09;;;;;;;26.17;20.30;;;;;;;2.67;100.00;95261.47;5044481;28;20222;-61
2022/12/10 01:08:37;;;;;;;22.20;19.03;;;;;;;2.67;100.00;95261.47;5045144;28;20305;-62
2022/12/10 01:11:03;;;;;;;23.60;19.47;;;;;;;2.75;100.00;95264.28;5044771;28;20245;-59
2022/12/10 01:13:30;;;;;;;25.47;19.67;;;;;;;2.76;100.00;95271.16;5044775;28;20207;-62
2022/12/10 01:15:56;;;;;;;24.20;18.53;;;;;;;2.76;100.00;95271.16;5044456;28;20196;-60
2022/12/10 01:18:23;;;;;;;24.70;19.70;;;;;;;2.71;100.00;95273.31;5045728;28;20211;-61
2022/12/10 01:20:49;;;;;;;24.07;19.77;;;;;;;2.77;100.00;95270.19;5044443;28;20217;-61
2022/12/10 01:23:16;;;;;;;27.70;20.33;;;;;;;2.69;100.00;95271.81;5045226;28;20701;-60
2022/12/10 01:25:43;;;;;;;22.73;18.33;;;;;;;2.73;100.00;95274.00;5046115;28;20207;-62
2022/12/10 01:28:10;;;;;;;23.43;19.27;;;;;;;2.73;100.00;95276.59;5045910;28;20204;-61
2022/12/10 01:30:36;;;;;;;22.90;19.03;;;;;;;2.78;100.00;95269.22;5046033;28;20222;-62
2022/12/10 01:33:03;;;;;;;23.13;19.40;;;;;;;2.76;100.00;95265.94;5044480;28;20217;-61
2022/12/10 01:35:30;;;;;;;21.60;18.10;;;;;;;2.81;100.00;95268.97;5044998;28;20221;-62
2022/12/10 01:37:56;;;;;;;22.23;17.90;;;;;;;2.81;100.00;95273.34;5044438;28;20213;-62
2022/12/10 01:40:23;;;;;;;21.90;18.33;;;;;;;2.78;100.00;95274.44;5044564;28;20838;-61
2022/12/10 01:42:50;;;;;;;20.90;17.07;;;;;;;2.83;100.00;95269.69;5043546;28;20215;-62
2022/12/10 01:45:22;;;;;;;20.63;16.90;;;;;;;2.76;100.00;95276.38;5045117;28;20233;-61
2022/12/10 01:47:49;;;;;;;20.30;16.83;;;;;;;2.80;100.00;95272.53;5046440;28;20203;-61
2022/12/10 01:50:16;;;;;;;19.63;16.93;;;;;;;2.78;100.00;95271.84;5046588;28;20239;-62
2022/12/10 01:52:42;;;;;;;19.67;17.27;;;;;;;2.82;100.00;95275.84;5044870;28;20200;-59
2022/12/10 01:55:40;;;;;;;18.40;16.37;;;;;;;2.78;100.00;95277.06;5044525;28;20227;-62
2022/12/10 01:58:08;;;;;;;20.03;17.30;;;;;;;2.78;100.00;95277.06;5043293;28;20207;-61
2022/12/10 02:00:38;;;;;;;19.50;16.87;;;;;;;2.79;100.00;95275.28;5044138;28;20234;-61
2022/12/10 02:03:09;;;;;;;19.30;16.47;;;;;;;2.77;100.00;95275.41;5044026;28;20222;-62
2022/12/10 02:05:40;;;;;;;20.53;16.70;;;;;;;2.70;100.00;95278.66;5044852;28;20291;-62
2022/12/10 02:08:11;;;;;;;21.00;17.77;;;;;;;2.74;100.00;95285.28;5043095;28;20203;-61
2022/12/10 02:10:52;;;;;;;18.47;16.23;;;;;;;2.82;100.00;95291.50;5042933;28;20230;-61
2022/12/10 02:13:24;;;;;;;19.57;16.60;;;;;;;2.81;100.00;95294.25;5044200;28;20207;-62
2022/12/10 02:15:52;;;;;;;18.93;16.47;;;;;;;2.81;100.00;95295.06;5043571;28;20206;-61
2022/12/10 02:18:21;;;;;;;18.03;15.83;;;;;;;2.83;100.00;95290.56;5043024;28;20258;-61
2022/12/10 02:20:50;;;;;;;17.70;15.87;;;;;;;2.86;100.00;95299.91;5043500;28;20296;-61
2022/12/10 02:23:21;;;;;;;19.67;17.57;;;;;;;2.86;100.00;95297.31;5042208;28;20207;-61
2022/12/10 02:25:50;;;;;;;18.07;15.93;;;;;;;2.83;100.00;95293.19;5043166;28;20217;-61
2022/12/10 02:28:23;;;;;;;17.53;15.63;;;;;;;2.83;100.00;95287.97;5042513;28;20211;-61
2022/12/10 02:30:52;;;;;;;20.07;16.70;;;;;;;2.83;100.00;95298.41;5042829;28;20568;-61
2022/12/10 02:33:20;;;;;;;18.33;16.43;;;;;;;2.83;100.00;95281.91;5042946;28;20206;-62
2022/12/10 02:35:48;;;;;;;18.33;16.13;;;;;;;2.77;100.00;95282.41;5043092;28;20200;-61
2022/12/10 02:38:18;;;;;;;18.33;16.37;;;;;;;2.76;100.00;95284.22;5042449;28;20203;-62
2022/12/10 02:40:47;;;;;;;18.83;16.53;;;;;;;2.75;100.00;95277.31;5042567;28;20294;-62
2022/12/10 02:43:14;;;;;;;20.47;17.27;;;;;;;2.79;100.00;95285.72;5042542;28;20199;-61
2022/12/10 02:45:42;;;;;;;19.17;16.50;;;;;;;2.66;100.00;95265.03;5042829;28;20852;-61
2022/12/10 02:48:10;;;;;;;19.43;16.13;;;;;;;2.70;100.00;95271.66;5043239;28;20211;-61
2022/12/10 02:50:37;;;;;;;18.87;16.23;;;;;;;2.71;100.00;95267.25;5042177;28;20697;-60
2022/12/10 02:53:03;;;;;;;19.93;16.13;;;;;;;2.67;100.00;95273.69;5041865;28;20221;-62
2022/12/10 02:55:31;;;;;;;19.87;17.07;;;;;;;2.70;100.00;95270.81;5042163;28;20578;-62
2022/12/10 02:58:07;;;;;;;20.07;16.73;;;;;;;2.67;100.00;95268.47;5042319;28;20278;-62
2022/12/10 03:00:36;;;;;;;21.97;17.87;;;;;;;2.71;100.00;95275.94;5042899;28;20250;-62
2022/12/10 03:03:25;;;;;;;21.07;16.90;;;;;;;2.72;100.00;95271.53;5042738;28;20203;-61
2022/12/10 03:05:57;;;;;;;20.77;17.47;;;;;;;2.71;100.00;95273.31;5042078;28;20206;-61
2022/12/10 03:08:25;;;;;;;19.23;17.10;;;;;;;2.73;100.00;95270.59;5043337;28;20213;-61
2022/12/10 03:10:56;;;;;;;21.90;17.23;;;;;;;2.67;100.00;95269.31;5041737;28;20223;-61
2022/12/10 03:13:28;;;;;;;20.30;17.50;;;;;;;2.67;100.00;95255.44;5042622;28;20208;-61
2022/12/10 03:15:55;;;;;;;21.43;17.73;;;;;;;2.66;100.00;95251.97;5042965;28;20203;-60
2022/12/10 03:18:25;;;;;;;20.00;16.97;;;;;;;2.72;100.00;95259.31;5044252;28;20199;-61
2022/12/10 03:20:53;;;;;;;20.80;17.73;;;;;;;2.66;100.00;95253.78;5042727;28;20203;-61
2022/12/10 03:23:21;;;;;;;22.00;18.37;;;;;;;2.70;100.00;95260.38;5041840;28;20213;-62
2022/12/10 03:25:48;;;;;;;20.43;17.77;;;;;;;2.70;100.00;95249.94;5041379;28;20643;-61
2022/12/10 03:28:15;;;;;;;22.20;17.83;;;;;;;2.72;100.00;95251.50;5042577;28;20218;-61
2022/12/10 03:30:43;;;;;;;22.77;18.00;;;;;;;2.72;100.00;95258.50;5043493;28;20233;-60
2022/12/10 03:33:10;;;;;;;21.63;17.87;;;;;;;2.79;100.00;95255.22;5047801;28;20206;-61
2022/12/10 03:35:41;;;;;;;22.97;18.13;;;;;;;2.79;100.00;95264.84;5052447;28;20213;-62
2022/12/10 03:38:08;;;;;;;21.63;18.17;;;;;;;2.74;100.00;95262.63;5050031;28;20522;-61
2022/12/10 03:40:35;;;;;;;21.83;17.47;;;;;;;2.75;100.00;95258.22;5054601;28;20212;-61
2022/12/10 03:43:01;;;;;;;20.50;17.83;;;;;;;2.74;100.00;95275.66;5062153;28;20521;-61
2022/12/10 03:45:28;;;;;;;22.33;18.10;;;;;;;2.69;100.00;95264.81;5054412;28;20206;-62
2022/12/10 03:47:54;;;;;;;24.43;19.07;;;;;;;2.60;100.00;95259.50;5049474;28;20222;-62
2022/12/10 03:50:21;;;;;;;21.20;18.00;;;;;;;2.61;100.00;95254.16;5047613;28;20686;-61
2022/12/10 03:52:49;;;;;;;21.63;17.53;;;;;;;2.56;100.00;95255.50;5047516;28;20211;-61
2022/12/10 03:55:15;;;;;;;22.03;17.93;;;;;;;2.63;100.00;95260.06;5051883;28;20217;-59
2022/12/10 03:57:42;;;;;;;21.40;17.43;;;;;;;2.63;100.00;95260.06;5049598;28;20208;-61
2022/12/10 04:00:10;;;;;;;23.90;19.20;;;;;;;2.64;100.00;95266.97;5050110;28;20243;-59
2022/12/10 04:02:36;;;;;;;20.13;17.90;;;;;;;2.67;100.00;95271.09;5047851;28;20207;-60
2022/12/10 04:05:04;;;;;;;21.17;17.90;;;;;;;2.69;100.00;95275.25;5046605;28;20199;-61
2022/12/10 04:07:31;;;;;;;22.03;18.37;;;;;;;2.69;100.00;95275.25;5046225;28;20203;-61
2022/12/10 04:09:59;;;;;;;21.03;17.83;;;;;;;2.58;100.00;95270.09;5046553;28;20207;-60
2022/12/10 04:12:25;;;;;;;20.63;18.43;;;;;;;2.55;100.00;95266.91;5047504;28;20506;-62
2022/12/10 04:17:47;;;;;;;23.70;18.33;;;;;;;2.61;100.00;95266.38;5011914;28;20543;-60
2022/12/10 04:28:24;;;;;;;20.60;17.30;;;;;;;2.46;100.00;95271.09;5045186;28;20205;-62
2022/12/10 04:30:50;;;;;;;21.60;17.23;;;;;;;2.51;100.00;95276.78;5045501;28;20231;-62
2022/12/10 04:33:17;;;;;;;21.43;17.73;;;;;;;2.47;100.00;95270.97;5047364;28;20212;-61
2022/12/10 04:35:43;;;;;;;20.80;17.50;;;;;;;2.52;100.00;95275.78;5047360;28;20214;-60
2022/12/10 04:38:10;;;;;;;20.13;17.70;;;;;;;2.47;100.00;95285.81;5046440;28;20203;-62
2022/12/10 04:40:36;;;;;;;22.10;17.43;;;;;;;2.49;100.00;95274.28;5047387;28;20207;-61
2022/12/10 04:43:04;;;;;;;19.57;17.07;;;;;;;2.55;100.00;95270.31;5046252;28;20217;-61
2022/12/10 04:45:30;;;;;;;22.17;17.53;;;;;;;2.49;100.00;95269.06;5046110;28;20208;-62
2022/12/10 04:47:57;;;;;;;20.20;18.00;;;;;;;2.41;100.00;95260.19;5048618;28;20213;-61
2022/12/10 04:50:23;;;;;;;20.87;17.97;;;;;;;2.45;100.00;95272.03;5046953;28;20203;-61
2022/12/10 04:52:50;;;;;;;21.90;17.37;;;;;;;2.48;100.00;95262.19;5045630;28;20469;-61
2022/12/10 04:55:17;;;;;;;23.83;18.90;;;;;;;2.42;100.00;95267.09;5045326;28;20196;-61
2022/12/10 04:57:43;;;;;;;22.67;18.50;;;;;;;2.39;100.00;95262.97;5044805;28;20232;-61
2022/12/10 05:00:13;;;;;;;21.37;18.40;;;;;;;2.44;100.00;95276.44;5045308;28;20231;-62
2022/12/10 05:02:39;;;;;;;21.83;19.37;;;;;;;2.41;100.00;95275.84;5045398;28;20216;-61
2022/12/10 05:05:06;;;;;;;23.07;19.20;;;;;;;2.42;100.00;95267.09;5045645;28;20229;-60
2022/12/10 05:07:33;;;;;;;21.17;18.30;;;;;;;2.41;100.00;95273.25;5044894;28;20211;-61
2022/12/10 05:10:00;;;;;;;22.13;18.37;;;;;;;2.44;100.00;95275.63;5043747;28;20211;-62
2022/12/10 05:12:27;;;;;;;23.20;18.27;;;;;;;2.46;100.00;95281.53;5044396;28;20547;-61
2022/12/10 05:14:54;;;;;;;24.63;19.37;;;;;;;2.39;100.00;95276.00;5045077;28;20211;-61
2022/12/10 05:17:22;;;;;;;23.17;17.90;;;;;;;2.44;100.00;95275.63;5044376;28;20628;-62
2022/12/10 05:19:48;;;;;;;23.80;19.97;;;;;;;2.40;100.00;95287.25;5045286;28;20210;-61
2022/12/10 05:24:59;;;;;;;22.60;18.60;;;;;;;2.47;100.00;95283.19;5043461;28;20214;-62
2022/12/10 05:27:25;;;;;;;21.60;17.77;;;;;;;2.40;100.00;95284.66;5043999;28;20649;-61
2022/12/10 05:29:52;;;;;;;21.50;18.07;;;;;;;2.41;100.00;95287.13;5043572;28;20207;-61
2022/12/10 05:32:18;;;;;;;21.73;17.83;;;;;;;2.37;100.00;95290.94;5045052;28;20234;-61
2022/12/10 05:34:46;;;;;;;22.97;18.47;;;;;;;2.37;100.00;95296.16;5044078;28;20215;-62
2022/12/10 05:37:13;;;;;;;22.30;18.27;;;;;;;2.31;100.00;95294.06;5044069;28;20212;-61
2022/12/10 05:39:39;;;;;;;21.57;18.33;;;;;;;2.38;100.00;95295.22;5044794;28;20206;-61
2022/12/10 05:42:06;;;;;;;21.50;17.53;;;;;;;2.44;100.00;95293.88;5045360;28;20206;-62
2022/12/10 05:44:32;;;;;;;23.00;18.77;;;;;;;2.43;100.00;95300.06;5043773;28;20207;-60
2022/12/10 05:46:59;;;;;;;20.00;17.30;;;;;;;2.40;100.00;95292.47;5043288;28;20226;-62
2022/12/10 05:49:25;;;;;;;22.30;18.37;;;;;;;2.34;100.00;95299.00;5043615;28;20214;-62
2022/12/10 05:51:55;;;;;;;21.10;17.73;;;;;;;2.45;100.00;95298.13;5045427;28;20528;-60
2022/12/10 05:54:21;;;;;;;20.17;17.67;;;;;;;2.40;100.00;95301.13;5043948;28;20508;-61
2022/12/10 05:56:48;;;;;;;21.23;17.70;;;;;;;2.40;100.00;95301.13;5043766;28;20219;-62
2022/12/10 05:59:14;;;;;;;21.17;18.00;;;;;;;2.39;100.00;95307.31;5043909;28;20258;-61
2022/12/10 06:01:41;;;;;;;19.80;17.27;;;;;;;2.37;100.00;95290.13;5044585;28;20207;-62
2022/12/10 06:04:08;;;;;;;20.00;17.10;;;;;;;2.37;100.00;95293.53;5043481;28;20202;-61
2022/12/10 06:06:37;;;;;;;18.73;16.73;;;;;;;2.37;100.00;95301.38;5043394;28;20210;-61
2022/12/10 06:09:05;;;;;;;20.03;17.43;;;;;;;2.40;100.00;95311.56;5043931;28;20537;-61
2022/12/10 06:11:32;;;;;;;22.00;17.63;;;;;;;2.33;100.00;95299.16;5046226;28;20220;-62
2022/12/10 06:13:59;;;;;;;20.17;17.97;;;;;;;2.27;100.00;95308.28;5047074;28;20643;-62
2022/12/10 06:16:27;;;;;;;19.73;16.10;;;;;;;2.29;100.00;95316.00;5047463;28;20245;-61
2022/12/10 06:18:54;;;;;;;20.00;16.73;;;;;;;2.24;100.00;95312.94;5047418;28;20205;-61
2022/12/10 06:21:21;;;;;;;19.13;16.57;;;;;;;2.22;100.00;95315.69;5047859;28;20215;-61
2022/12/10 06:23:51;;;;;;;20.63;16.97;;;;;;;2.22;100.00;95317.47;5044631;28;20208;-62
2022/12/10 06:26:20;;;;;;;19.97;16.50;;;;;;;2.16;100.00;95321.38;5046327;28;20650;-62
2022/12/10 06:28:47;;;;;;;18.20;15.80;;;;;;;2.24;100.00;95329.41;5048843;28;20216;-62
2022/12/10 06:31:14;;;;;;;20.60;17.53;;;;;;;2.25;100.00;95320.66;5048874;28;20238;-62
2022/12/10 06:33:41;;;;;;;21.47;16.93;;;;;;;2.26;100.00;95331.91;5046202;28;20222;-62
2022/12/10 06:36:10;;;;;;;20.40;17.17;;;;;;;2.24;100.00;95324.19;5043572;28;20207;-64
2022/12/10 06:38:37;;;;;;;20.90;16.97;;;;;;;2.23;100.00;95321.72;5044222;28;20208;-62
2022/12/10 06:41:05;;;;;;;17.63;15.63;;;;;;;2.27;100.00;95325.72;5043765;28;20856;-61
2022/12/10 06:43:33;;;;;;;18.10;15.20;;;;;;;2.34;100.00;95332.09;5043995;28;20202;-62
2022/12/10 06:46:00;;;;;;;18.93;15.77;;;;;;;2.32;100.00;95334.84;5044097;28;20279;-62
2022/12/10 06:48:26;;;;;;;18.47;15.80;;;;;;;2.29;100.00;95336.88;5042451;28;20199;-61
2022/12/10 06:50:53;;;;;;;17.23;15.37;;;;;;;2.24;100.00;95341.63;5042569;28;20222;-61
2022/12/10 06:53:19;;;;;;;18.77;14.57;;;;;;;2.23;100.00;95345.19;5042463;28;20222;-61
2022/12/10 06:55:46;;;;;;;17.03;14.83;;;;;;;2.27;100.00;95351.78;5043859;28;20206;-60
2022/12/10 06:58:12;;;;;;;16.93;15.03;;;;;;;2.29;100.00;95355.13;5042741;28;20651;-60
2022/12/10 07:00:40;;;;;;;17.97;16.00;;;;;;;2.29;100.00;95355.97;5043197;28;20260;-60
2022/12/10 07:03:07;;;;;;;19.33;16.47;;;;;;;2.23;100.00;95358.25;5042194;28;20203;-60
2022/12/10 07:05:33;;;;;;;17.40;15.43;;;;;;;2.25;100.00;95356.31;5042164;28;20207;-61
2022/12/10 07:08:00;;;;;;;16.83;15.13;;;;;;;2.29;100.00;95355.97;5042554;28;20221;-62
2022/12/10 07:10:26;;;;;;;18.17;16.20;;;;;;;2.37;100.00;95356.16;5046940;28;20196;-60
2022/12/10 07:12:53;;;;;;;17.83;15.93;;;;;;;2.35;100.00;95359.84;5045544;28;20706;-61
2022/12/10 07:15:19;;;;;;;16.23;14.53;;;;;;;2.37;100.00;95360.56;5045170;28;20223;-61
2022/12/10 07:17:47;;;;;;;17.60;15.53;;;;;;;2.33;100.00;95367.81;5043455;28;20646;-61
2022/12/10 07:20:14;;;;;;;18.33;15.17;;;;;;;2.30;100.00;95362.00;5045769;28;20211;-61
2022/12/10 07:22:40;;;;;;;18.63;16.00;;;;;;;2.34;100.00;95369.44;5047316;28;20214;-60
2022/12/10 07:25:07;;;;;;;17.83;15.93;;;;;;;2.28;100.00;95363.91;5044376;28;20222;-61
2022/12/10 07:27:34;;;;;;;17.83;15.27;;;;;;;2.29;100.00;95365.56;5044237;28;20222;-62
2022/12/10 07:30:00;;;;;;;18.37;16.33;;;;;;;2.29;100.00;95365.56;5046222;28;20659;-61
2022/12/10 07:32:27;;;;;;;18.13;15.30;;;;;;;2.38;100.00;95375.22;5047386;28;20222;-61
2022/12/10 07:34:55;;;;;;;16.37;14.67;;;;;;;2.26;100.00;95373.63;5043170;28;20214;-61
2022/12/10 07:37:22;;;;;;;17.13;15.33;;;;;;;2.23;100.00;95379.09;5042378;28;20222;-61
2022/12/10 07:39:48;;;;;;;17.37;15.23;;;;;;;2.26;100.00;95373.63;5041677;28;20572;-61
2022/12/10 07:42:15;;;;;;;17.60;15.70;;;;;;;2.37;100.00;95378.81;5043136;28;20195;-62
2022/12/10 07:44:42;;;;;;;19.50;16.80;;;;;;;2.31;100.00;95379.28;5043751;28;21428;-62
2022/12/10 07:47:08;;;;;;;20.67;17.27;;;;;;;2.33;100.00;95378.25;5043364;28;20298;-61
2022/12/10 07:49:35;;;;;;;19.47;17.10;;;;;;;2.34;100.00;95384.25;5042959;28;20223;-62
2022/12/10 07:52:02;;;;;;;19.67;16.53;;;;;;;2.35;100.00;95385.91;5041885;28;20634;-61
2022/12/10 07:54:29;;;;;;;19.40;15.83;;;;;;;2.48;100.00;95389.19;5041335;28;20206;-61
2022/12/10 07:56:55;;;;;;;21.20;17.70;;;;;;;2.43;100.00;95396.56;5042973;28;20199;-60
2022/12/10 07:59:22;;;;;;;21.47;17.33;;;;;;;2.47;100.00;95398.00;5042877;28;20242;-60
2022/12/10 08:01:49;;;;;;;19.80;16.97;;;;;;;2.41;100.00;95403.69;5042618;28;20513;-61
2022/12/10 08:04:16;;;;;;;18.93;16.17;;;;;;;2.38;100.00;95403.94;5043377;28;20214;-62
2022/12/10 08:06:43;;;;;;;21.57;17.53;;;;;;;2.29;100.00;95402.06;5043993;28;20206;-61
2022/12/10 08:09:11;;;;;;;19.00;16.90;;;;;;;2.28;100.00;95408.22;5043514;28;20203;-61
2022/12/10 08:11:39;;;;;;;19.93;15.83;;;;;;;2.28;100.00;95405.63;5044269;28;20210;-61
2022/12/10 08:14:06;;;;;;;21.67;16.80;;;;;;;2.19;100.00;95409.81;5043234;28;20215;-62
2022/12/10 08:16:33;;;;;;;19.90;16.73;;;;;;;2.16;100.00;95417.06;5041984;28;20210;-61
2022/12/10 08:19:00;;;;;;;20.00;16.67;;;;;;;2.17;100.00;95421.31;5041975;28;20882;-62
2022/12/10 08:21:30;;;;;;;18.13;15.90;;;;;;;2.17;100.00;95426.50;5044805;28;20211;-60
2022/12/10 08:23:57;;;;;;;19.37;15.50;;;;;;;2.22;100.00;95424.38;5045629;28;20213;-61
2022/12/10 08:26:26;;;;;;;17.93;15.17;;;;;;;2.23;100.00;95428.66;5046355;28;20213;-60
2022/12/10 08:28:52;;;;;;;17.50;14.67;;;;;;;2.13;100.00;95435.53;5045618;28;20216;-61
2022/12/10 08:31:20;;;;;;;17.40;15.07;;;;;;;2.07;100.00;95436.03;5045769;28;20203;-62
2022/12/10 08:33:47;;;;;;;16.47;14.57;;;;;;;2.11;100.00;95434.84;5046027;28;20243;-61
2022/12/10 08:36:15;;;;;;;17.67;14.70;;;;;;;2.08;100.00;95437.69;5046686;28;20208;-61
2022/12/10 08:38:43;;;;;;;15.43;13.73;;;;;;;2.05;100.00;95437.94;5045031;28;20210;-61
2022/12/10 08:41:11;;;;;;;15.77;13.83;;;;;;;2.12;100.00;95437.34;5045940;28;20199;-62
2022/12/10 08:43:38;;;;;;;14.80;13.07;;;;;;;2.06;100.00;95436.97;5045063;28;20207;-61
2022/12/10 08:46:05;;;;;;;16.63;14.43;;;;;;;2.00;100.00;95440.91;5046089;28;20202;-61
2022/12/10 08:48:32;;;;;;;15.60;14.00;;;;;;;1.98;100.00;95446.22;5047171;28;20336;-62
2022/12/10 08:50:59;;;;;;;16.40;13.90;;;;;;;1.97;100.00;95449.78;5048310;28;20214;-62
2022/12/10 08:53:25;;;;;;;15.90;13.90;;;;;;;1.96;100.00;95457.72;5052265;28;20244;-61
2022/12/10 08:55:52;;;;;;;15.97;14.00;;;;;;;1.96;100.00;95463.75;5066970;28;20215;-62
2022/12/10 08:58:19;;;;;;;15.57;13.90;;;;;;;1.96;100.00;95462.94;5050237;28;20672;-61
2022/12/10 09:00:47;;;;;;;14.27;12.80;;;;;;;1.93;100.00;95464.00;5047197;28;20238;-62
2022/12/10 09:03:14;;;;;;;13.43;12.03;;;;;;;1.92;100.00;95467.56;5047352;28;20194;-62
2022/12/10 09:05:41;;;;;;;13.97;12.43;;;;;;;1.90;100.00;95466.03;5047940;28;20207;-60
2022/12/10 09:08:08;;;;;;;13.07;11.77;;;;;;;1.88;100.00;95476.56;5047271;28;20212;-60
2022/12/10 09:10:37;;;;;;;13.10;11.70;;;;;;;1.81;100.00;95480.59;5048419;28;20202;-61
2022/12/10 09:13:04;;;;;;;13.00;11.70;;;;;;;1.68;100.00;95474.66;5047455;28;20217;-60
2022/12/10 09:15:31;;;;;;;12.70;11.47;;;;;;;1.74;100.00;95489.81;5046501;28;20213;-61
2022/12/10 09:17:59;;;;;;;13.40;12.10;;;;;;;1.76;100.00;95492.31;5046412;28;20215;-61
2022/12/10 09:20:25;;;;;;;12.13;10.93;;;;;;;1.81;100.00;95492.78;5046256;28;20209;-61
2022/12/10 09:22:52;;;;;;;12.40;11.10;;;;;;;1.75;100.00;95501.09;5045300;28;20402;-62
2022/12/10 09:25:21;;;;;;;13.57;12.27;;;;;;;1.74;100.00;95500.25;5044644;28;20216;-60
2022/12/10 09:27:47;;;;;;;13.07;11.77;;;;;;;1.72;100.00;95502.16;5045587;28;20221;-62
2022/12/10 09:30:14;;;;;;;13.70;12.30;;;;;;;1.68;100.00;95508.53;5045223;28;20638;-61
2022/12/10 09:32:41;;;;;;;12.37;11.17;;;;;;;1.64;100.00;95514.94;5045799;28;20238;-62
2022/12/10 09:35:09;;;;;;;14.47;12.97;;;;;;;1.70;100.00;95509.25;5045042;28;20212;-60
2022/12/10 09:37:35;;;;;;;13.90;12.57;;;;;;;1.73;100.00;95513.41;5048635;28;20203;-62
2022/12/10 09:40:05;;;;;;;12.70;11.50;;;;;;;1.81;100.00;95513.63;5053316;28;20216;-61
2022/12/10 09:42:44;;;;;;;12.77;11.47;;;;;;;1.78;100.00;95512.09;5048579;28;20203;-61
2022/12/10 09:45:17;;;;;;;14.07;12.57;;;;;;;1.73;100.00;95511.63;5047658;28;20231;-61
2022/12/10 09:47:50;;;;;;;13.33;12.03;;;;;;;1.78;100.00;95517.31;5047757;28;20201;-60
2022/12/10 09:50:23;;;;;;;14.57;12.73;;;;;;;1.87;100.00;95523.59;5048022;28;20764;-61
2022/12/10 09:52:50;;;;;;;13.90;12.47;;;;;;;1.87;100.00;95516.63;5048182;28;20214;-60
2022/12/10 09:55:20;;;;;;;13.63;12.23;;;;;;;1.91;100.00;95522.44;5046459;28;20206;-62
2022/12/10 09:57:49;;;;;;;13.93;12.53;;;;;;;1.89;100.00;95519.94;5047015;28;20215;-61
2022/12/10 10:00:23;;;;;;;13.27;11.83;;;;;;;1.92;100.00;95518.84;5047223;28;20258;-61
2022/12/10 10:02:51;;;;;;;14.03;12.63;;;;;;;1.90;100.00;95523.38;5047347;28;20194;-61
2022/12/10 10:05:23;;;;;;;13.80;12.40;;;;;;;1.88;100.00;95518.25;5047966;28;20202;-60
2022/12/10 10:07:52;;;;;;;13.70;12.30;;;;;;;1.89;100.00;95519.94;5046513;28;20269;-60
2022/12/10 10:10:24;;;;;;;14.30;12.87;;;;;;;1.92;100.00;95524.91;5047072;28;20238;-61
2022/12/10 10:12:53;;;;;;;13.47;12.17;;;;;;;1.91;100.00;95523.22;5047567;28;20277;-60
2022/12/10 10:15:25;;;;;;;14.30;12.90;;;;;;;1.99;100.00;95523.47;5048865;28;20203;-61
2022/12/10 10:17:54;;;;;;;14.23;12.73;;;;;;;2.05;100.00;95523.97;5053831;28;20214;-62
2022/12/10 10:20:22;;;;;;;13.80;12.13;;;;;;;2.05;100.00;95529.19;5052842;28;20205;-60
2022/12/10 10:22:48;;;;;;;14.10;12.67;;;;;;;2.06;100.00;95525.59;5051169;28;20218;-62
2022/12/10 10:25:16;;;;;;;14.40;12.90;;;;;;;2.06;100.00;95523.84;5048756;28;20560;-62
2022/12/10 10:27:42;;;;;;;13.87;12.37;;;;;;;1.96;100.00;95530.72;5048652;28;20520;-62
2022/12/10 10:30:16;;;;;;;13.50;12.07;;;;;;;2.12;100.00;95530.38;5048627;28;20534;-61
2022/12/10 10:32:49;;;;;;;13.33;11.93;;;;;;;2.03;100.00;95533.66;5046349;28;20313;-63
2022/12/10 10:35:28;;;;;;;13.23;11.93;;;;;;;2.04;100.00;95533.56;5044562;28;20693;-62
2022/12/10 10:37:58;;;;;;;14.20;12.70;;;;;;;2.05;100.00;95529.19;5043581;28;20206;-60
2022/12/10 10:40:27;;;;;;;13.30;11.90;;;;;;;1.95;100.00;95540.31;5044821;28;20235;-61
2022/12/10 10:42:55;;;;;;;14.03;12.53;;;;;;;2.04;100.00;95543.16;5043569;28;20864;-61
2022/12/10 10:45:34;;;;;;;12.90;11.60;;;;;;;1.99;100.00;95539.13;5044466;28;20214;-61
2022/12/10 10:48:07;;;;;;;12.77;11.53;;;;;;;1.97;100.00;95543.63;5043836;28;20202;-62
2022/12/10 10:50:39;;;;;;;13.40;12.00;;;;;;;1.96;100.00;95541.13;5044145;28;20203;-63
2022/12/10 10:53:30;;;;;;;14.03;12.40;;;;;;;1.94;100.00;95537.84;5044234;28;20228;-61
2022/12/10 10:56:00;;;;;;;12.73;11.30;;;;;;;1.97;100.00;95533.22;5042743;28;20263;-61
2022/12/10 10:58:27;;;;;;;12.60;11.30;;;;;;;1.97;100.00;95533.22;5043801;28;20217;-61
2022/12/10 11:00:57;;;;;;;12.20;10.93;;;;;;;2.00;100.00;95530.38;5043845;28;20257;-62
2022/12/10 11:03:26;;;;;;;12.77;11.43;;;;;;;2.03;100.00;95536.28;5043087;28;20655;-61
2022/12/10 11:05:54;;;;;;;13.43;12.13;;;;;;;2.09;100.00;95528.81;5043646;28;20224;-60
2022/12/10 11:08:21;;;;;;;13.10;10.93;;;;;;;2.11;100.00;95539.13;5042899;28;20545;-59
2022/12/10 11:10:49;;;;;;;12.27;11.07;;;;;;;2.06;100.00;95531.66;5043905;28;20208;-59
2022/12/10 11:13:21;;;;;;;13.23;11.83;;;;;;;1.97;100.00;95538.44;5052614;28;20240;-62
2022/12/10 11:15:56;;;;;;;12.20;11.00;;;;;;;2.02;100.00;95534.63;5054391;28;20203;-59
2022/12/10 11:18:30;;;;;;;13.60;12.00;;;;;;;1.97;100.00;95543.63;5055003;28;20205;-60
2022/12/10 11:21:01;;;;;;;13.30;11.90;;;;;;;1.99;100.00;95540.91;5045496;28;20203;-61
2022/12/10 11:23:28;;;;;;;12.03;10.80;;;;;;;1.97;100.00;95546.25;5044099;28;20203;-60
2022/12/10 11:26:02;;;;;;;13.37;11.97;;;;;;;1.97;100.00;95553.22;5044288;28;20211;-62
2022/12/10 11:28:43;;;;;;;12.77;11.23;;;;;;;2.03;100.00;95550.16;5044065;28;20210;-61
2022/12/10 11:31:20;;;;;;;13.80;12.40;;;;;;;2.00;100.00;95548.63;5044002;28;20209;-59
2022/12/10 11:33:52;;;;;;;13.33;11.63;;;;;;;1.94;100.00;95548.25;5044082;28;20224;-59
2022/12/10 11:36:29;;;;;;;12.33;11.13;;;;;;;1.96;100.00;95559.38;5043612;28;20208;-61